Terminal Aerodrome Forecast
Issued by NWS Binghamton, NY

Home | Current Version | Previous Version | Text Only | Print | Product List | Glossary On
Versions: 1 2 3 4 5 6 7 8 9 10 11 12 13 14 15 16 17 18 19 20 21
000
FTUS41 KBGM 222300
TAFAVP
TAF
KAVP 222340Z 2300/2324 VRB05KT P6SM SCT008 OVC015 WS020/16035KT
      TEMPO 2300/2304 5SM -SHRA BR OVC008
     FM231400 13008KT P6SM SCT012 OVC025=

USA.gov is the U.S. government's official web portal to all federal, state and local government web resources and services.